Aviation Digital Data Service (ADDS)

Output produced by METARs form (0645 UTC 23 February 2019)
found at http://www.aviationweather.gov/metar/data/
 
KCAK 230551Z 07008KT 7SM OVC250 00/M05 A3033 RMK AO2 SLP283 T00001050 10022 21006 58020
KCAK 230538Z 2306/2406 08006KT P6SM OVC250 
     FM231600 12012KT P6SM OVC060 
     FM231800 13012KT P6SM VCSH OVC012 
     FM232200 14012KT 5SM -RA BR OVC008